createdAt,value
2018-07-17T00:00:01.437Z,79.55
2018-07-17T00:01:01.617Z,79.55
2018-07-17T00:02:01.805Z,80.45
2018-07-17T00:03:01.985Z,80.35
2018-07-17T00:04:02.188Z,80.74
2018-07-17T00:05:02.378Z,81.02
2018-07-17T00:06:02.564Z,80.74
2018-07-17T00:07:02.750Z,81.12
2018-07-17T00:08:02.938Z,81.12
2018-07-17T00:09:03.125Z,81.41
2018-07-17T00:10:03.316Z,81.79
2018-07-17T00:11:03.501Z,81.60
2018-07-17T00:12:03.687Z,81.98
2018-07-17T00:13:03.875Z,81.89
2018-07-17T00:14:04.061Z,82.08
2018-07-17T00:15:04.249Z,81.60
2018-07-17T00:16:04.435Z,81.98
2018-07-17T00:17:04.622Z,81.70
2018-07-17T00:18:04.805Z,82.32
2018-07-17T00:19:05.004Z,81.60
2018-07-17T00:20:05.182Z,81.56
2018-07-17T00:21:05.374Z,81.95
2018-07-17T00:22:05.562Z,80.60
2018-07-17T00:23:05.748Z,80.26
2018-07-17T00:24:05.938Z,80.22
2018-07-17T00:25:06.127Z,80.55
2018-07-17T00:26:06.311Z,80.41
2018-07-17T00:27:06.504Z,80.32
2018-07-17T00:28:06.680Z,80.79
2018-07-17T00:29:06.862Z,81.75
2018-07-17T00:30:07.069Z,81.37
2018-07-17T00:31:07.257Z,81.56
2018-07-17T00:32:07.443Z,81.37
2018-07-17T00:33:07.628Z,80.41
2018-07-17T00:34:07.821Z,79.83
2018-07-17T00:35:08.019Z,79.93
2018-07-17T00:36:08.216Z,79.07
2018-07-17T00:37:08.413Z,78.02
2018-07-17T00:38:08.601Z,77.25
2018-07-17T00:39:08.793Z,76.48
2018-07-17T00:40:08.987Z,76.86
2018-07-17T00:41:09.202Z,76.48
2018-07-17T00:42:09.386Z,76.86
2018-07-17T00:43:09.579Z,77.82
2018-07-17T00:44:09.768Z,77.53
2018-07-17T00:45:09.961Z,78.40
2018-07-17T00:46:10.153Z,78.02
2018-07-17T00:47:10.340Z,78.02
2018-07-17T00:48:10.526Z,77.25
2018-07-17T00:49:10.710Z,77.63
2018-07-17T00:50:10.900Z,77.25
2018-07-17T00:51:11.095Z,77.06
2018-07-17T00:52:11.283Z,77.31
2018-07-17T00:53:11.470Z,77.02
2018-07-17T00:54:11.675Z,75.87
2018-07-17T00:55:11.858Z,76.29
2018-07-17T00:56:12.066Z,76.15
2018-07-17T00:57:12.227Z,76.15
2018-07-17T00:58:12.419Z,76.44
2018-07-17T00:59:12.598Z,75.87
2018-07-17T01:00:12.786Z,75.01
2018-07-17T01:01:13.029Z,73.86
2018-07-17T01:02:13.161Z,72.23
2018-07-17T01:03:13.341Z,71.56
2018-07-17T01:04:13.527Z,71.75
2018-07-17T01:05:13.711Z,71.66
2018-07-17T01:06:13.920Z,72.71
2018-07-17T01:07:14.508Z,72.32
2018-07-17T01:08:14.291Z,72.13
2018-07-17T01:09:14.481Z,71.66
2018-07-17T01:10:14.670Z,72.61
2018-07-17T01:11:14.850Z,71.33
2018-07-17T01:12:15.037Z,68.46
2018-07-17T01:13:15.217Z,63.96
2018-07-17T01:14:15.404Z,62.71
2018-07-17T01:15:15.589Z,61.76
2018-07-17T01:16:15.779Z,61.76
2018-07-17T01:17:15.963Z,61.66
2018-07-17T01:18:16.152Z,61.47
2018-07-17T01:19:16.338Z,60.51
2018-07-17T01:20:16.517Z,60.41
2018-07-17T01:21:16.704Z,60.32
2018-07-17T01:22:16.890Z,60.80
2018-07-17T01:23:17.077Z,60.89
2018-07-17T01:24:17.264Z,61.37
2018-07-17T01:25:17.444Z,60.61
2018-07-17T01:26:17.636Z,60.89
2018-07-17T01:27:17.832Z,60.89
2018-07-17T01:28:18.006Z,60.99
2018-07-17T01:29:18.197Z,61.08
2018-07-17T01:30:18.381Z,61.08
2018-07-17T01:31:18.571Z,61.18
2018-07-17T01:32:18.754Z,61.57
2018-07-17T01:33:18.940Z,61.18
2018-07-17T01:34:19.124Z,61.37
2018-07-17T01:35:19.316Z,61.47
2018-07-17T01:36:19.502Z,61.37
2018-07-17T01:37:19.686Z,60.80
2018-07-17T01:38:19.920Z,59.27
2018-07-17T01:39:20.053Z,57.06
2018-07-17T01:40:20.238Z,56.87
2018-07-17T01:41:20.426Z,56.77
2018-07-17T01:42:20.610Z,57.35
2018-07-17T01:43:20.801Z,58.98
2018-07-17T01:44:20.987Z,57.92
2018-07-17T01:45:21.175Z,58.02
2018-07-17T01:46:21.361Z,57.45
2018-07-17T01:47:21.548Z,57.73
2018-07-17T01:48:21.732Z,57.35
2018-07-17T01:49:21.923Z,57.54
2018-07-17T01:50:22.109Z,57.06
2018-07-17T01:51:22.285Z,57.64
2018-07-17T01:52:22.488Z,57.45
2018-07-17T01:53:22.676Z,57.83
2018-07-17T01:54:22.858Z,57.54
2018-07-17T01:55:23.041Z,57.54
2018-07-17T01:56:23.227Z,57.83
2018-07-17T01:57:23.412Z,58.22
2018-07-17T01:58:23.600Z,57.45
2018-07-17T01:59:23.785Z,57.64
2018-07-17T02:00:23.973Z,57.54
2018-07-17T02:01:24.156Z,58.12
2018-07-17T02:02:24.342Z,58.02
2018-07-17T02:03:24.530Z,57.64
2018-07-17T02:04:24.725Z,57.26
2018-07-17T02:05:24.904Z,56.20
2018-07-17T02:06:25.088Z,55.73
2018-07-17T02:07:25.276Z,56.87
2018-07-17T02:08:25.461Z,57.35
2018-07-17T02:09:25.649Z,57.35
2018-07-17T02:10:25.835Z,56.77
2018-07-17T02:11:26.027Z,55.91
2018-07-17T02:12:26.212Z,55.73
2018-07-17T02:13:26.403Z,56.20
2018-07-17T02:14:26.587Z,56.10
2018-07-17T02:15:26.772Z,55.60
2018-07-17T02:16:26.955Z,55.69
2018-07-17T02:17:27.144Z,55.41
2018-07-17T02:18:27.333Z,53.69
2018-07-17T02:19:27.516Z,51.68
2018-07-17T02:20:27.702Z,49.57
2018-07-17T02:21:27.888Z,47.18
2018-07-17T02:22:28.076Z,46.03
2018-07-17T02:23:28.251Z,45.07
2018-07-17T02:24:28.447Z,44.12
2018-07-17T02:25:28.631Z,43.44
2018-07-17T02:26:28.820Z,43.54
2018-07-17T02:27:29.005Z,45.17
2018-07-17T02:28:29.191Z,44.79
2018-07-17T02:29:29.377Z,44.50
2018-07-17T02:30:29.561Z,44.31
2018-07-17T02:31:29.748Z,44.12
2018-07-17T02:32:29.935Z,43.92
2018-07-17T02:33:30.119Z,44.02
2018-07-17T02:34:30.300Z,44.02
2018-07-17T02:35:30.493Z,43.63
2018-07-17T02:36:30.676Z,42.97
2018-07-17T02:37:30.903Z,42.40
2018-07-17T02:38:31.048Z,40.86
2018-07-17T02:39:31.239Z,40.00
2018-07-17T02:40:31.425Z,38.56
2018-07-17T02:41:31.609Z,37.04
2018-07-17T02:42:31.796Z,35.50
2018-07-17T02:43:31.981Z,32.92
2018-07-17T02:44:32.169Z,31.58
2018-07-17T02:45:32.354Z,28.80
2018-07-17T02:46:32.546Z,28.33
2018-07-17T02:47:32.723Z,29.09
2018-07-17T02:48:32.910Z,29.76
2018-07-17T02:49:33.097Z,29.01
2018-07-17T02:50:33.281Z,27.95
2018-07-17T02:51:33.467Z,27.95
2018-07-17T02:52:33.654Z,27.67
2018-07-17T02:53:33.841Z,28.05
2018-07-17T02:54:34.026Z,27.76
2018-07-17T02:55:34.206Z,29.11
2018-07-17T02:56:34.396Z,33.22
2018-07-17T02:57:34.582Z,33.99
2018-07-17T02:58:34.768Z,35.61
2018-07-17T02:59:34.951Z,40.50
2018-07-17T03:00:35.128Z,43.92
2018-07-17T03:01:35.321Z,44.02
2018-07-17T03:02:35.502Z,43.54
2018-07-17T03:03:35.690Z,42.56
2018-07-17T03:04:35.876Z,41.91
2018-07-17T03:05:36.056Z,41.89
2018-07-17T03:06:36.249Z,40.84
2018-07-17T03:07:36.436Z,40.94
2018-07-17T03:08:36.622Z,40.75
2018-07-17T03:09:36.805Z,39.50
2018-07-17T03:10:37.003Z,39.40
2018-07-17T03:11:37.169Z,39.31
2018-07-17T03:12:37.356Z,39.98
2018-07-17T03:13:37.541Z,40.65
2018-07-17T03:14:37.723Z,40.65
2018-07-17T03:15:37.908Z,40.29
2018-07-17T03:16:38.098Z,39.40
2018-07-17T03:17:38.277Z,39.89
2018-07-17T03:18:38.467Z,39.60
2018-07-17T03:19:38.648Z,39.62
2018-07-17T03:20:38.856Z,39.60
2018-07-17T03:21:39.044Z,39.72
2018-07-17T03:22:39.229Z,39.79
2018-07-17T03:23:39.418Z,39.89
2018-07-17T03:24:39.745Z,39.98
2018-07-17T03:25:39.786Z,39.72
2018-07-17T03:26:39.976Z,39.22
2018-07-17T03:27:40.162Z,39.40
2018-07-17T03:28:40.348Z,39.98
2018-07-17T03:29:40.538Z,39.89
2018-07-17T03:30:40.723Z,39.50
2018-07-17T03:31:40.910Z,40.75
2018-07-17T03:32:41.092Z,42.08
2018-07-17T03:33:41.278Z,41.13
2018-07-17T03:34:41.460Z,40.94
2018-07-17T03:35:41.656Z,40.84
2018-07-17T03:36:41.842Z,40.46
2018-07-17T03:37:42.027Z,41.51
2018-07-17T03:38:42.218Z,41.41
2018-07-17T03:39:42.406Z,41.22
2018-07-17T03:40:42.593Z,41.13
2018-07-17T03:41:42.781Z,41.22
2018-07-17T03:42:42.966Z,41.13
2018-07-17T03:43:43.153Z,41.03
2018-07-17T03:44:43.341Z,41.13
2018-07-17T03:45:43.523Z,41.82
2018-07-17T03:46:43.712Z,41.99
2018-07-17T03:47:43.895Z,42.08
2018-07-17T03:48:44.082Z,41.32
2018-07-17T03:49:44.268Z,40.46
2018-07-17T03:50:44.457Z,41.80
2018-07-17T03:51:44.638Z,42.08
2018-07-17T03:52:44.822Z,42.37
2018-07-17T03:53:45.013Z,43.80
2018-07-17T03:54:45.199Z,44.67
2018-07-17T03:55:45.379Z,44.00
2018-07-17T03:56:45.567Z,43.33
2018-07-17T03:57:45.752Z,43.04
2018-07-17T03:58:45.944Z,42.66
2018-07-17T03:59:46.126Z,42.66
2018-07-17T04:00:46.321Z,43.43
2018-07-17T04:01:46.514Z,44.29
2018-07-17T04:02:46.707Z,44.19
2018-07-17T04:03:46.886Z,44.00
2018-07-17T04:04:47.082Z,44.19
2018-07-17T04:05:47.268Z,44.50
2018-07-17T04:06:47.451Z,45.72
2018-07-17T04:07:47.637Z,45.91
2018-07-17T04:08:47.875Z,45.15
2018-07-17T04:09:48.013Z,44.67
2018-07-17T04:10:48.202Z,44.86
2018-07-17T04:11:48.390Z,43.90
2018-07-17T04:12:48.592Z,42.18
2018-07-17T04:13:48.763Z,40.94
2018-07-17T04:14:48.951Z,40.46
2018-07-17T04:15:49.138Z,39.79
2018-07-17T04:16:49.325Z,38.93
2018-07-17T04:17:49.516Z,38.83
2018-07-17T04:18:49.702Z,38.95
2018-07-17T04:19:49.887Z,39.62
2018-07-17T04:20:50.079Z,39.72
2018-07-17T04:21:50.263Z,39.90
2018-07-17T04:22:50.454Z,40.86
2018-07-17T04:23:50.636Z,41.34
2018-07-17T04:24:50.811Z,43.06
2018-07-17T04:25:51.005Z,42.49
2018-07-17T04:26:51.184Z,41.72
2018-07-17T04:27:51.371Z,41.44
2018-07-17T04:28:51.552Z,41.15
2018-07-17T04:29:51.779Z,40.77
2018-07-17T04:30:51.932Z,40.77
2018-07-17T04:31:52.225Z,40.86
2018-07-17T04:32:52.310Z,42.68
2018-07-17T04:33:52.496Z,44.02
2018-07-17T04:34:52.685Z,44.79
2018-07-17T04:35:52.887Z,45.74
2018-07-17T04:36:53.074Z,43.54
2018-07-17T04:37:53.265Z,42.11
2018-07-17T04:38:53.450Z,42.08
2018-07-17T04:39:53.637Z,42.18
2018-07-17T04:40:53.830Z,41.03
2018-07-17T04:41:54.056Z,40.94
2018-07-17T04:42:54.202Z,40.65
2018-07-17T04:43:54.388Z,40.95
2018-07-17T04:44:54.580Z,42.08
2018-07-17T04:45:54.760Z,42.27
2018-07-17T04:46:54.943Z,41.53
2018-07-17T04:47:55.129Z,41.91
2018-07-17T04:48:55.317Z,42.30
2018-07-17T04:49:55.500Z,42.30
2018-07-17T04:50:55.688Z,42.80
2018-07-17T04:51:55.876Z,44.33
2018-07-17T04:52:56.065Z,47.11
2018-07-17T04:53:56.306Z,50.46
2018-07-17T04:54:56.436Z,55.46
2018-07-17T04:55:56.636Z,61.15
2018-07-17T04:56:56.822Z,66.89
2018-07-17T04:57:57.013Z,70.76
2018-07-17T04:58:57.196Z,74.31
2018-07-17T04:59:57.387Z,78.25
2018-07-17T05:00:57.581Z,78.92
2018-07-17T05:01:57.789Z,80.87
2018-07-17T05:02:57.956Z,82.60
2018-07-17T05:03:58.138Z,84.61
2018-07-17T05:04:58.323Z,87.54
2018-07-17T05:05:58.516Z,86.52
2018-07-17T05:06:58.704Z,90.08
2018-07-17T05:07:58.894Z,92.19
2018-07-17T05:08:59.082Z,92.67
2018-07-17T05:09:59.272Z,92.48
2018-07-17T05:10:59.461Z,93.68
2018-07-17T05:11:59.654Z,94.16
2018-07-17T05:12:59.880Z,95.07
2018-07-17T05:14:00.034Z,96.70
2018-07-17T05:15:00.225Z,98.24
2018-07-17T05:16:00.418Z,98.14
2018-07-17T05:17:00.608Z,98.58
2018-07-17T05:18:00.800Z,99.35
2018-07-17T05:19:00.991Z,99.73
2018-07-17T05:20:01.187Z,99.99
2018-07-17T05:21:01.377Z,99.69
2018-07-17T05:22:01.569Z,99.98
2018-07-17T05:23:01.779Z,99.99
2018-07-17T05:24:01.961Z,99.99
2018-07-17T05:25:02.168Z,99.99
2018-07-17T05:26:02.356Z,99.99
2018-07-17T05:27:02.550Z,99.99
2018-07-17T05:28:02.747Z,99.99
2018-07-17T05:29:03.017Z,99.99
2018-07-17T05:30:03.138Z,99.99
2018-07-17T05:31:03.329Z,99.99
2018-07-17T05:32:03.523Z,99.99
2018-07-17T05:33:03.717Z,99.99
2018-07-17T05:34:03.919Z,99.99
2018-07-17T05:35:04.124Z,99.99
2018-07-17T05:36:04.309Z,99.99
2018-07-17T05:37:04.505Z,99.88
2018-07-17T05:38:04.704Z,99.99
2018-07-17T05:39:04.899Z,99.99
2018-07-17T05:40:05.095Z,99.99
2018-07-17T05:41:05.291Z,99.99
2018-07-17T05:42:05.493Z,99.99
2018-07-17T05:43:05.687Z,99.99
2018-07-17T05:44:05.884Z,99.99
2018-07-17T05:45:06.081Z,99.99
2018-07-17T05:46:06.281Z,99.99
2018-07-17T05:47:06.481Z,99.99
2018-07-17T05:48:06.679Z,99.99
2018-07-17T05:49:06.878Z,99.99
2018-07-17T05:50:07.082Z,99.99
2018-07-17T05:51:07.279Z,99.99
2018-07-17T05:52:07.475Z,99.99
2018-07-17T05:53:07.672Z,99.99
2018-07-17T05:54:07.869Z,99.99
2018-07-17T05:55:08.071Z,99.99
2018-07-17T05:56:08.267Z,99.41
2018-07-17T05:57:08.472Z,99.79
2018-07-17T05:58:08.675Z,99.79
2018-07-17T05:59:08.878Z,99.50
2018-07-17T06:00:09.080Z,99.55
2018-07-17T06:01:09.278Z,99.51
2018-07-17T06:02:09.479Z,98.15
2018-07-17T06:03:09.681Z,96.94
2018-07-17T06:04:09.886Z,95.78
2018-07-17T06:05:10.078Z,96.02
2018-07-17T06:06:10.277Z,95.68
2018-07-17T06:07:10.475Z,94.18
2018-07-17T06:08:10.675Z,94.09
2018-07-17T06:09:10.875Z,94.96
2018-07-17T06:10:11.087Z,95.49
2018-07-17T06:11:11.281Z,95.64
2018-07-17T06:12:11.479Z,97.28
2018-07-17T06:13:11.681Z,97.77
2018-07-17T06:14:11.879Z,96.80
2018-07-17T06:15:12.077Z,96.65
2018-07-17T06:16:12.304Z,96.55
2018-07-17T06:17:12.504Z,97.04
2018-07-17T06:18:12.704Z,95.87
2018-07-17T06:19:12.909Z,96.75
2018-07-17T06:21:56.319Z,97.67
2018-07-17T06:22:56.025Z,95.34
2018-07-17T06:23:56.221Z,95.58
2018-07-17T06:24:56.422Z,93.70
2018-07-17T06:25:56.622Z,95.25
2018-07-17T06:26:56.827Z,96.89
2018-07-17T06:27:57.043Z,97.91
2018-07-17T06:28:57.244Z,99.11
2018-07-17T06:29:57.446Z,98.78
2018-07-17T06:30:57.644Z,97.86
2018-07-17T06:31:57.845Z,96.31
2018-07-17T06:32:58.096Z,96.36
2018-07-17T06:33:58.240Z,96.89
2018-07-17T06:34:58.458Z,96.46
2018-07-17T06:35:58.667Z,96.55
2018-07-17T06:36:58.865Z,95.92
2018-07-17T06:37:59.063Z,95.44
2018-07-17T06:38:59.270Z,95.10
2018-07-17T06:39:59.478Z,95.93
2018-07-17T06:40:59.678Z,96.80
2018-07-17T06:41:59.880Z,96.55
2018-07-17T06:43:00.082Z,96.07
2018-07-17T06:44:00.280Z,94.96
2018-07-17T06:45:00.482Z,94.76
2018-07-17T06:46:00.681Z,94.23
2018-07-17T06:47:00.884Z,94.57
2018-07-17T06:48:01.082Z,92.33
2018-07-17T06:49:01.279Z,92.87
2018-07-17T06:50:01.485Z,93.99
2018-07-17T06:51:01.683Z,95.25
2018-07-17T06:52:01.882Z,96.17
2018-07-17T06:53:02.084Z,98.49
2018-07-17T06:54:02.286Z,98.39
2018-07-17T06:55:02.482Z,99.07
2018-07-17T06:56:02.684Z,99.07
2018-07-17T06:57:02.883Z,98.44
2018-07-17T06:58:03.084Z,99.69
2018-07-17T06:59:03.284Z,99.99
2018-07-17T07:00:03.484Z,99.99
2018-07-17T07:01:03.691Z,99.99
2018-07-17T07:02:03.885Z,99.99
2018-07-17T07:03:04.084Z,99.99
2018-07-17T07:04:04.283Z,98.35
2018-07-17T07:05:04.485Z,97.52
2018-07-17T07:06:04.686Z,96.22
2018-07-17T07:07:04.886Z,95.87
2018-07-17T07:08:05.086Z,94.13
2018-07-17T07:09:05.283Z,93.74
2018-07-17T07:10:05.483Z,90.78
2018-07-17T07:11:05.709Z,91.11
2018-07-17T07:12:05.883Z,89.95
2018-07-17T07:13:06.083Z,89.37
2018-07-17T07:14:06.285Z,89.76
2018-07-17T07:15:06.483Z,89.37
2018-07-17T07:16:06.683Z,91.08
2018-07-17T07:17:06.881Z,92.39
2018-07-17T07:18:07.086Z,93.36
2018-07-17T07:19:07.285Z,95.10
2018-07-17T07:20:07.485Z,95.83
2018-07-17T07:21:07.682Z,95.73
2018-07-17T07:22:07.886Z,96.60
2018-07-17T07:23:08.084Z,96.51
2018-07-17T07:24:08.286Z,96.60
2018-07-17T07:25:08.481Z,96.56
2018-07-17T07:26:08.747Z,96.22
2018-07-17T07:27:08.883Z,95.68
2018-07-17T07:28:09.087Z,95.73
2018-07-17T07:29:09.287Z,95.01
2018-07-17T07:30:09.487Z,94.13
2018-07-17T07:31:09.686Z,93.31
2018-07-17T07:32:09.883Z,93.11
2018-07-17T07:33:10.083Z,91.89
2018-07-17T07:34:10.284Z,88.55
2018-07-17T07:35:10.486Z,86.36
2018-07-17T07:36:10.687Z,84.07
2018-07-17T07:37:10.938Z,84.41
2018-07-17T07:38:11.083Z,84.45
2018-07-17T07:39:11.284Z,80.94
2018-07-17T07:40:11.484Z,81.53
2018-07-17T07:41:11.684Z,81.01
2018-07-17T07:42:11.879Z,82.90
2018-07-17T07:43:12.070Z,82.52
2018-07-17T07:44:12.273Z,79.84
2018-07-17T07:45:12.474Z,79.39
2018-07-17T07:46:12.675Z,80.02
2018-07-17T07:47:12.872Z,77.53
2018-07-17T07:48:13.073Z,76.01
2018-07-17T07:49:13.336Z,79.38
2018-07-17T07:50:13.478Z,79.00
2018-07-17T07:51:13.678Z,81.78
2018-07-17T07:52:13.882Z,83.74
2018-07-17T07:53:14.081Z,82.85
2018-07-17T07:54:14.278Z,81.78
2018-07-17T07:55:14.482Z,83.39
2018-07-17T07:56:14.683Z,83.64
2018-07-17T07:57:14.886Z,84.14
2018-07-17T07:58:15.085Z,87.44
2018-07-17T07:59:15.288Z,88.07
2018-07-17T08:00:15.491Z,88.56
2018-07-17T08:01:15.689Z,84.92
2018-07-17T08:02:15.892Z,87.09
2018-07-17T08:03:16.092Z,85.64
2018-07-17T08:04:16.294Z,87.96
2018-07-17T08:05:16.497Z,88.55
2018-07-17T08:06:16.699Z,88.21
2018-07-17T08:07:16.901Z,89.76
2018-07-17T08:08:17.102Z,89.18
2018-07-17T08:09:17.303Z,85.50
2018-07-17T08:10:17.505Z,87.91
2018-07-17T08:11:17.704Z,87.43
2018-07-17T08:12:18.006Z,89.71
2018-07-17T08:13:18.094Z,89.71
2018-07-17T08:14:18.293Z,89.03
2018-07-17T08:15:18.496Z,90.78
2018-07-17T08:16:18.691Z,90.68
2018-07-17T08:17:18.895Z,87.76
2018-07-17T08:18:19.091Z,82.46
2018-07-17T08:19:19.291Z,80.17
2018-07-17T08:20:19.498Z,80.44
2018-07-17T08:21:19.696Z,80.25
2018-07-17T08:22:19.898Z,83.69
2018-07-17T08:23:20.101Z,81.41
2018-07-17T08:24:20.363Z,83.03
2018-07-17T08:25:20.505Z,82.02
2018-07-17T08:26:20.708Z,83.82
2018-07-17T08:27:20.915Z,83.24
2018-07-17T08:28:21.120Z,83.39
2018-07-17T08:29:21.322Z,84.32
2018-07-17T08:30:21.521Z,84.22
2018-07-17T08:31:21.725Z,84.42
2018-07-17T08:32:21.920Z,84.12
2018-07-17T08:33:22.127Z,84.12
2018-07-17T08:34:22.332Z,87.82
2018-07-17T08:35:22.535Z,85.68
2018-07-17T08:36:22.741Z,87.04
2018-07-17T08:37:22.940Z,85.68
2018-07-17T08:38:23.145Z,85.24
2018-07-17T08:39:23.348Z,83.92
2018-07-17T08:40:23.549Z,84.31
2018-07-17T08:41:23.737Z,82.81
2018-07-17T08:42:23.935Z,84.17
2018-07-17T08:43:24.148Z,82.52
2018-07-17T08:44:24.334Z,83.49
2018-07-17T08:45:24.538Z,82.46
2018-07-17T08:46:24.736Z,80.07
2018-07-17T08:47:24.934Z,80.76
2018-07-17T08:48:25.135Z,79.39
2018-07-17T08:49:25.338Z,76.75
2018-07-17T08:50:25.535Z,75.87
2018-07-17T08:51:25.733Z,75.32
2018-07-17T08:52:25.935Z,76.01
2018-07-17T08:53:26.130Z,75.56
2018-07-17T08:54:26.388Z,74.29
2018-07-17T08:55:26.538Z,74.78
2018-07-17T08:56:26.737Z,76.53
2018-07-17T08:57:26.936Z,75.75
2018-07-17T08:58:27.135Z,76.92
2018-07-17T08:59:27.336Z,75.16
2018-07-17T09:00:27.565Z,76.63
2018-07-17T09:01:27.734Z,79.49
2018-07-17T09:02:27.942Z,78.61
2018-07-17T09:03:28.132Z,74.13
2018-07-17T09:04:28.332Z,75.49
2018-07-17T09:05:28.534Z,74.33
2018-07-17T09:06:28.736Z,73.84
2018-07-17T09:07:28.932Z,74.78
2018-07-17T09:08:29.131Z,74.90
2018-07-17T09:09:29.337Z,76.22
2018-07-17T09:10:29.537Z,77.97
2018-07-17T09:11:29.737Z,76.75
2018-07-17T09:12:29.936Z,74.45
2018-07-17T09:13:30.135Z,74.19
2018-07-17T09:14:30.331Z,75.36
2018-07-17T09:15:30.534Z,72.64
2018-07-17T09:16:30.732Z,72.96
2018-07-17T09:17:30.924Z,72.09
2018-07-17T09:18:31.134Z,69.65
2018-07-17T09:19:31.331Z,71.64
2018-07-17T09:20:31.527Z,71.21
2018-07-17T09:21:31.763Z,71.31
2018-07-17T09:22:31.920Z,70.76
2018-07-17T09:23:32.122Z,71.34
2018-07-17T09:24:32.321Z,71.64
2018-07-17T09:25:32.519Z,69.75
2018-07-17T09:26:32.716Z,71.50
2018-07-17T09:27:32.915Z,71.99
2018-07-17T09:28:33.114Z,69.23
2018-07-17T09:29:33.310Z,68.45
2018-07-17T09:30:33.554Z,68.06
2018-07-17T09:31:33.704Z,68.45
2018-07-17T09:32:33.902Z,66.99
2018-07-17T09:33:34.115Z,66.41
2018-07-17T09:34:34.297Z,66.31
2018-07-17T09:35:34.496Z,63.68
2018-07-17T09:36:34.693Z,64.84
2018-07-17T09:37:34.892Z,62.80
2018-07-17T09:38:35.092Z,63.97
2018-07-17T09:39:35.291Z,64.36
2018-07-17T09:40:35.488Z,62.41
2018-07-17T09:41:35.685Z,59.78
2018-07-17T09:42:35.880Z,61.93
2018-07-17T09:43:36.082Z,61.24
2018-07-17T09:44:36.279Z,59.52
2018-07-17T09:45:36.477Z,58.06
2018-07-17T09:46:36.680Z,58.45
2018-07-17T09:47:36.875Z,58.58
2018-07-17T09:48:37.089Z,57.89
2018-07-17T09:49:37.283Z,55.77
2018-07-17T09:50:37.488Z,54.53
2018-07-17T09:51:37.683Z,54.21
2018-07-17T09:52:37.883Z,52.14
2018-07-17T09:53:38.080Z,51.78
2018-07-17T09:54:38.281Z,56.56
2018-07-17T09:55:38.474Z,59.06
2018-07-17T09:56:38.674Z,61.76
2018-07-17T09:57:38.871Z,61.83
2018-07-17T09:58:39.067Z,63.51
2018-07-17T09:59:39.262Z,61.86
2018-07-17T10:00:39.461Z,63.81
2018-07-17T10:01:39.662Z,60.88
2018-07-17T10:02:39.857Z,61.08
2018-07-17T10:03:40.053Z,59.42
2018-07-17T10:04:40.322Z,56.57
2018-07-17T10:05:40.452Z,57.06
2018-07-17T10:06:40.647Z,58.13
2018-07-17T10:07:40.846Z,56.27
2018-07-17T10:08:41.054Z,57.15
2018-07-17T10:09:41.242Z,55.11
2018-07-17T10:10:41.437Z,55.89
2018-07-17T10:11:41.633Z,55.11
2018-07-17T10:12:41.832Z,55.30
2018-07-17T10:13:42.025Z,54.16
2018-07-17T10:14:42.235Z,54.65
2018-07-17T10:15:42.421Z,52.80
2018-07-17T10:16:42.621Z,51.92
2018-07-17T10:17:42.818Z,50.58
2018-07-17T10:18:43.016Z,51.07
2018-07-17T10:19:43.213Z,50.29
2018-07-17T10:20:43.411Z,50.38
2018-07-17T10:21:43.609Z,49.61
2018-07-17T10:22:43.807Z,49.12
2018-07-17T10:23:44.008Z,49.51
2018-07-17T10:24:44.201Z,49.71
2018-07-17T10:25:44.397Z,48.93
2018-07-17T10:26:44.646Z,48.44
2018-07-17T10:27:44.791Z,48.14
2018-07-17T10:28:44.987Z,46.30
2018-07-17T10:29:45.187Z,47.25
2018-07-17T10:30:45.381Z,48.29
2018-07-17T10:31:45.578Z,49.07
2018-07-17T10:32:45.778Z,50.46
2018-07-17T10:33:45.977Z,47.92
2018-07-17T10:34:46.174Z,47.13
2018-07-17T10:35:46.373Z,48.00
2018-07-17T10:36:46.571Z,48.39
2018-07-17T10:37:46.765Z,49.29
2018-07-17T10:38:47.038Z,49.10
2018-07-17T10:39:47.157Z,48.80
2018-07-17T10:40:47.356Z,47.22
2018-07-17T10:41:47.552Z,47.10
2018-07-17T10:42:47.745Z,47.10
2018-07-17T10:43:47.940Z,47.78
2018-07-17T10:44:48.136Z,48.19
2018-07-17T10:45:48.332Z,48.49
2018-07-17T10:46:48.529Z,47.63
2018-07-17T10:47:48.732Z,46.44
2018-07-17T10:48:48.921Z,45.76
2018-07-17T10:49:49.116Z,46.25
2018-07-17T10:50:49.319Z,46.76
2018-07-17T10:51:49.507Z,46.27
2018-07-17T10:52:49.705Z,46.30
2018-07-17T10:53:49.902Z,45.90
2018-07-17T10:54:50.101Z,45.22
2018-07-17T10:55:50.292Z,44.64
2018-07-17T10:56:50.487Z,44.93
2018-07-17T10:57:50.681Z,45.32
2018-07-17T10:58:50.877Z,45.03
2018-07-17T10:59:51.074Z,45.12
2018-07-17T11:00:51.277Z,45.10
2018-07-17T11:01:51.465Z,45.88
2018-07-17T11:02:51.659Z,46.08
2018-07-17T11:03:51.853Z,45.03
2018-07-17T11:04:52.049Z,43.27
2018-07-17T11:05:52.249Z,44.76
2018-07-17T11:06:52.441Z,44.15
2018-07-17T11:07:52.637Z,44.54
2018-07-17T11:08:52.835Z,44.44
2018-07-17T11:09:53.030Z,44.64
2018-07-17T11:10:53.226Z,44.64
2018-07-17T11:11:53.414Z,44.54
2018-07-17T11:12:53.657Z,45.61
2018-07-17T11:13:53.853Z,45.05
2018-07-17T11:14:54.051Z,44.76
2018-07-17T11:15:54.246Z,45.83
2018-07-17T11:16:54.440Z,45.25
2018-07-17T11:17:54.636Z,46.14
2018-07-17T11:18:54.832Z,44.38
2018-07-17T11:19:55.033Z,45.07
2018-07-17T11:20:55.230Z,43.39
2018-07-17T11:21:55.427Z,44.05
2018-07-17T11:22:55.619Z,46.02
2018-07-17T11:23:55.824Z,44.56
2018-07-17T11:24:56.028Z,45.15
2018-07-17T11:25:56.223Z,43.10
2018-07-17T11:26:56.417Z,43.59
2018-07-17T11:27:56.617Z,44.66
2018-07-17T11:28:56.814Z,45.32
2018-07-17T11:29:57.008Z,45.92
2018-07-17T11:30:57.205Z,45.83
2018-07-17T11:31:57.427Z,45.15
2018-07-17T11:32:57.600Z,46.39
2018-07-17T11:33:57.792Z,44.54
2018-07-17T11:34:57.987Z,44.34
2018-07-17T11:35:58.184Z,44.93
2018-07-17T11:36:58.379Z,45.39
2018-07-17T11:37:58.573Z,45.90
2018-07-17T11:38:58.777Z,46.00
2018-07-17T11:39:58.971Z,46.59
2018-07-17T11:40:59.162Z,46.49
2018-07-17T11:41:59.358Z,46.78
2018-07-17T11:42:59.554Z,47.17
2018-07-17T11:43:59.750Z,47.85
2018-07-17T11:44:59.946Z,48.54
2018-07-17T11:46:00.140Z,48.54
2018-07-17T11:47:00.335Z,47.88
2018-07-17T11:48:00.534Z,47.49
2018-07-17T11:49:00.729Z,46.78
2018-07-17T11:50:00.925Z,48.34
2018-07-17T11:51:01.120Z,48.27
2018-07-17T11:52:01.318Z,47.88
2018-07-17T11:53:01.510Z,48.58
2018-07-17T11:54:01.707Z,48.29
2018-07-17T11:55:01.926Z,47.90
2018-07-17T11:56:02.139Z,48.19
2018-07-17T11:57:02.336Z,48.00
2018-07-17T11:58:02.539Z,46.92
2018-07-17T11:59:02.815Z,47.97
2018-07-17T12:00:02.922Z,47.75
2018-07-17T12:01:03.120Z,47.83
2018-07-17T12:02:03.317Z,47.95
2018-07-17T12:03:03.524Z,47.85
2018-07-17T12:04:03.714Z,47.95
2018-07-17T12:05:03.905Z,48.54
2018-07-17T12:06:04.101Z,47.85
2018-07-17T12:07:04.297Z,47.15
2018-07-17T12:08:04.492Z,47.95
2018-07-17T12:09:04.684Z,48.44
2018-07-17T12:10:04.879Z,48.24
2018-07-17T12:11:05.076Z,48.24
2018-07-17T12:12:05.281Z,47.75
2018-07-17T12:13:05.576Z,48.56
2018-07-17T12:14:05.675Z,48.36
2018-07-17T12:15:05.869Z,47.31
2018-07-17T12:16:06.073Z,48.00
2018-07-17T12:17:06.267Z,48.00
2018-07-17T12:18:06.456Z,48.46
2018-07-17T12:19:06.681Z,48.56
2018-07-17T12:20:07.037Z,48.63
2018-07-17T12:21:07.108Z,49.02
2018-07-17T12:22:07.298Z,48.66
2018-07-17T12:23:07.487Z,48.36
2018-07-17T12:24:07.708Z,47.97
2018-07-17T12:25:07.882Z,48.05
2018-07-17T12:26:08.092Z,47.78
2018-07-17T12:27:08.322Z,47.49
2018-07-17T12:28:08.650Z,47.58
2018-07-17T12:29:08.716Z,46.90
2018-07-17T12:30:08.910Z,46.70
2018-07-17T12:31:09.181Z,46.78
2018-07-17T12:32:09.258Z,47.27
2018-07-17T12:33:09.467Z,48.14
2018-07-17T12:34:09.694Z,48.32
2018-07-17T12:35:09.879Z,48.51
2018-07-17T12:36:10.076Z,48.61
2018-07-17T12:37:10.278Z,48.90
2018-07-17T12:38:10.484Z,50.36
2018-07-17T12:39:10.678Z,49.29
2018-07-17T12:40:10.879Z,49.10
2018-07-17T12:41:11.079Z,49.29
2018-07-17T12:42:11.283Z,49.58
2018-07-17T12:43:11.529Z,48.41
2018-07-17T12:44:11.795Z,48.61
2018-07-17T12:45:11.968Z,49.00
2018-07-17T12:46:12.183Z,48.93
2018-07-17T12:47:12.398Z,49.51
2018-07-17T12:48:12.600Z,48.17
2018-07-17T12:49:12.803Z,48.75
2018-07-17T12:50:12.982Z,48.39
2018-07-17T12:51:13.209Z,48.32
2018-07-17T12:52:13.413Z,48.24
2018-07-17T12:53:13.636Z,47.75
2018-07-17T12:54:13.824Z,46.19
2018-07-17T12:55:14.030Z,46.19
2018-07-17T12:56:14.217Z,45.21